Time;durP1;ratioP1;P1;durP2;ratioP2;P2;SDS_P1;SDS_P2;PMS_P1;PMS_P2;Temp;Humidity;BMP_temperature;BMP_pressure;BME280_temperature;BME280_humidity;BME280_pressure;Samples;Min_cycle;Max_cycle;Signal;HPM_P1;HPM_P2
2022/10/02 00:00:15;;;;;;;42.43;24.07;;;;;;;-141.97;100.00;47542.16;4859597;29;20211;-88
2022/10/02 00:02:52;;;;;;;40.23;24.77;;;;;;;-141.97;100.00;47546.00;4862308;29;20164;-87
2022/10/02 00:05:23;;;;;;;61.90;34.83;;;;;;;-141.97;100.00;47588.28;4863278;29;20202;-87
2022/10/02 00:08:01;;;;;;;174.90;79.50;;;;;;;-141.97;100.00;47594.03;4882241;29;20214;-88
2022/10/02 00:10:36;;;;;;;57.57;30.50;;;;;;;-141.97;100.00;47588.28;4865375;29;20711;-88
2022/10/02 00:13:09;;;;;;;34.33;19.93;;;;;;;-141.97;100.00;47611.34;4882021;29;20178;-89
2022/10/02 00:15:36;;;;;;;49.43;29.73;;;;;;;-141.97;100.00;47584.44;4881994;29;20168;-89
2022/10/02 00:18:21;;;;;;;48.73;29.33;;;;;;;-141.97;100.00;47526.75;4865164;29;20232;-89
2022/10/02 00:20:55;;;;;;;26.20;16.90;;;;;;;-141.97;100.00;47622.88;4882805;29;20174;-88
2022/10/02 00:23:49;;;;;;;28.80;16.13;;;;;;;-141.97;100.00;47565.22;4886480;29;20171;-90
2022/10/02 00:26:54;;;;;;;22.47;14.50;;;;;;;-141.97;100.00;47634.41;4892141;29;20171;-88
2022/10/02 00:29:20;;;;;;;21.50;14.97;;;;;;;-141.97;100.00;47597.88;4842842;29;20224;-87
2022/10/02 00:32:19;;;;;;;23.97;13.77;;;;;;;-141.97;100.00;47569.06;4842431;29;20203;-86
2022/10/02 00:35:17;;;;;;;24.00;13.77;;;;;;;-141.97;100.00;47628.63;4790280;29;20246;-88
2022/10/02 00:38:20;;;;;;;21.73;13.50;;;;;;;-141.97;100.00;47597.88;4805288;29;20727;-88
2022/10/02 00:41:07;;;;;;;20.80;13.97;;;;;;;-141.97;100.00;47601.72;4787455;30;20269;-87
2022/10/02 00:44:02;;;;;;;21.67;13.07;;;;;;;-141.97;100.00;47615.19;4787352;30;20553;-88
2022/10/02 00:46:47;;;;;;;20.80;12.90;;;;;;;-141.97;100.00;47630.56;4771310;30;20572;-88
2022/10/02 00:49:41;;;;;;;20.77;12.63;;;;;;;-141.97;100.00;47595.97;4770919;30;20758;-88
2022/10/02 00:52:12;;;;;;;19.10;11.10;;;;;;;-141.97;100.00;47611.34;4770397;30;20199;-88
2022/10/02 00:54:46;;;;;;;15.30;10.40;;;;;;;-141.97;100.00;47624.78;4769854;30;20690;-87
2022/10/02 00:57:35;;;;;;;18.87;10.50;;;;;;;-141.97;100.00;47532.53;4769979;30;20722;-87
2022/10/02 01:00:12;;;;;;;18.60;10.63;;;;;;;-141.97;100.00;47601.72;4769967;30;20206;-88
2022/10/02 01:02:40;;;;;;;18.73;10.50;;;;;;;-141.97;99.55;47597.88;4770505;30;20180;-88
2022/10/02 01:05:07;;;;;;;13.30;10.10;;;;;;;-141.97;98.28;47592.13;4788144;29;20323;-88
2022/10/02 01:07:37;;;;;;;12.97;9.47;;;;;;;-141.97;96.90;47588.28;4791120;29;20186;-88
2022/10/02 01:10:03;;;;;;;14.40;9.53;;;;;;;-141.97;96.14;47611.34;4820458;29;20217;-88
2022/10/02 01:12:29;;;;;;;14.13;9.80;;;;;;;-141.97;96.15;47572.91;4821032;29;20169;-88
2022/10/02 01:14:54;;;;;;;16.47;11.30;;;;;;;-141.97;96.23;47619.03;4823961;29;20537;-89
2022/10/02 01:17:22;;;;;;;16.83;10.90;;;;;;;-141.97;95.92;47557.53;4854512;29;20294;-89
2022/10/02 01:19:48;;;;;;;16.73;11.70;;;;;;;-141.97;96.46;47547.91;4877864;29;20310;-89
2022/10/02 01:22:37;;;;;;;16.53;10.63;;;;;;;-141.97;97.67;47601.72;4868094;29;20179;-89
2022/10/02 01:25:05;;;;;;;16.90;10.70;;;;;;;-141.97;99.03;47594.03;4919525;29;20196;-89
2022/10/02 01:27:32;;;;;;;16.87;10.30;;;;;;;-141.97;99.47;47642.09;4918828;29;20233;-89
2022/10/02 01:30:07;;;;;;;14.83;10.07;;;;;;;-141.97;99.54;47580.59;4921085;29;20212;-89
2022/10/02 01:32:36;;;;;;;15.97;10.50;;;;;;;-141.97;100.00;47632.47;4943980;29;20180;-89
2022/10/02 01:35:04;;;;;;;14.77;10.23;;;;;;;-141.97;100.00;47561.38;4926009;29;20272;-89
2022/10/02 01:37:33;;;;;;;15.40;10.40;;;;;;;-141.97;100.00;47626.72;4936410;29;20568;-89
2022/10/02 01:40:07;;;;;;;14.90;10.07;;;;;;;-141.97;99.83;47590.19;4919366;29;20201;-89
2022/10/02 01:42:33;;;;;;;18.13;9.97;;;;;;;-141.97;99.27;47601.72;4919472;29;20173;-88
2022/10/02 01:44:59;;;;;;;13.80;9.63;;;;;;;-141.97;98.57;47572.91;4919465;29;20705;-88
2022/10/02 01:47:34;;;;;;;14.37;8.80;;;;;;;-141.97;97.10;47494.09;4936792;29;20161;-89
2022/10/02 01:50:17;;;;;;;13.67;8.60;;;;;;;-141.97;95.90;47617.09;4919268;29;20689;-89
2022/10/02 01:52:50;;;;;;;11.20;7.17;;;;;;;-141.97;94.87;47580.59;4937020;29;20653;-88
2022/10/02 01:55:26;;;;;;;12.87;7.90;;;;;;;-141.97;94.03;47561.38;4936174;29;20317;-87
2022/10/02 01:58:10;;;;;;;9.23;7.03;;;;;;;-141.97;95.10;47611.34;4935709;29;20219;-88
2022/10/02 02:01:17;;;;;;;10.33;6.43;;;;;;;-141.97;96.20;47578.66;4935705;29;20189;-86
2022/10/02 02:04:01;;;;;;;10.17;6.43;;;;;;;-141.97;97.27;47586.34;4915308;29;20248;-88
2022/10/02 02:06:40;;;;;;;10.17;5.63;;;;;;;-141.97;97.67;47792.03;4899641;29;20178;-88
2022/10/02 02:09:38;;;;;;;9.30;6.23;;;;;;;-141.97;97.04;47630.56;4919112;29;20224;-87
2022/10/02 02:12:27;;;;;;;9.97;5.47;;;;;;;-141.97;97.27;47653.63;4911834;29;20202;-88
2022/10/02 02:15:06;;;;;;;12.20;6.67;;;;;;;-141.97;97.46;47742.03;4877399;29;20199;-87
2022/10/02 02:17:42;;;;;;;13.07;7.47;;;;;;;-141.97;97.39;47622.88;4864918;29;20195;-88
2022/10/02 02:20:21;;;;;;;11.17;7.73;;;;;;;-141.97;97.13;47595.97;4862314;29;20191;-87
2022/10/02 02:22:50;;;;;;;9.70;5.60;;;;;;;-141.97;96.05;47620.94;4862169;29;20199;-87
2022/10/02 02:25:18;;;;;;;8.33;5.13;;;;;;;-141.97;95.31;47594.03;4878087;29;20219;-88
2022/10/02 02:27:48;;;;;;;12.10;7.13;;;;;;;-141.97;94.76;47551.75;4863091;29;20720;-88
2022/10/02 02:30:15;;;;;;;9.60;5.90;;;;;;;-141.97;93.66;47572.91;4878707;29;20317;-88
2022/10/02 02:32:47;;;;;;;8.73;5.20;;;;;;;-141.97;93.18;47542.16;4863708;29;20358;-88
2022/10/02 02:35:28;;;;;;;9.83;6.00;;;;;;;-141.97;93.31;47574.81;4879541;29;20665;-88
2022/10/02 02:37:59;;;;;;;11.23;6.53;;;;;;;-141.97;93.05;47570.97;4879410;29;20642;-88
2022/10/02 02:40:29;;;;;;;7.87;6.07;;;;;;;-141.97;92.96;47544.06;4854227;29;20721;-88
2022/10/02 02:43:03;;;;;;;11.13;6.53;;;;;;;-141.97;93.00;47622.88;4845268;29;20200;-89
2022/10/02 02:45:36;;;;;;;8.17;5.57;;;;;;;-141.97;93.44;47597.88;4859115;29;20195;-88
2022/10/02 02:48:08;;;;;;;8.37;5.13;;;;;;;-141.97;93.58;47563.28;4861723;29;20202;-89
2022/10/02 02:50:42;;;;;;;10.47;6.00;;;;;;;-141.97;93.60;47503.69;4861740;29;20199;-88
2022/10/02 02:53:36;;;;;;;9.90;5.93;;;;;;;-141.97;94.31;47728.59;4936369;29;20192;-87
2022/10/02 02:56:07;;;;;;;8.90;5.87;;;;;;;-141.97;95.45;47601.72;4938002;29;20280;-88
2022/10/02 02:58:54;;;;;;;8.03;4.67;;;;;;;-141.97;95.72;47615.19;4939435;29;20194;-88
2022/10/02 03:01:20;;;;;;;9.60;4.53;;;;;;;-141.97;95.94;47515.22;4919334;29;20208;-88
2022/10/02 03:03:45;;;;;;;8.57;4.80;;;;;;;-141.97;97.16;47634.41;4935999;29;20193;-89
2022/10/02 03:06:20;;;;;;;7.63;5.00;;;;;;;-141.97;97.42;47619.03;4937278;29;20173;-90
2022/10/02 03:08:51;;;;;;;7.90;4.37;;;;;;;-141.97;97.81;47747.81;4919553;29;20708;-89
2022/10/02 03:11:41;;;;;;;7.93;4.70;;;;;;;-141.97;98.31;47611.34;4920151;29;20181;-89
2022/10/02 03:14:31;;;;;;;7.17;4.53;;;;;;;-141.97;99.09;47601.72;4917964;29;20185;-87
2022/10/02 03:17:22;;;;;;;7.17;4.27;;;;;;;-141.97;100.00;47624.78;4932652;29;20185;-88
2022/10/02 03:19:58;;;;;;;7.17;5.30;;;;;;;-141.97;100.00;47576.75;4921755;29;20166;-87
2022/10/02 03:22:43;;;;;;;8.27;5.57;;;;;;;-141.97;100.00;47634.41;4917251;29;20162;-88
2022/10/02 03:25:30;;;;;;;9.93;6.40;;;;;;;-141.97;100.00;47611.34;4899382;29;20178;-89
2022/10/02 03:28:18;;;;;;;8.63;5.20;;;;;;;-141.97;100.00;47776.63;4916056;29;20228;-88
2022/10/02 03:30:45;;;;;;;10.20;6.00;;;;;;;-141.97;100.00;47578.66;4899938;29;20193;-89
2022/10/02 03:33:15;;;;;;;11.93;6.63;;;;;;;-141.97;100.00;47572.91;4900632;29;20238;-88
2022/10/02 03:35:41;;;;;;;8.47;6.03;;;;;;;-141.97;100.00;47636.31;4901055;29;20559;-87
2022/10/02 03:38:12;;;;;;;8.70;5.97;;;;;;;-141.97;100.00;47465.25;4902649;29;20267;-89
2022/10/02 03:40:37;;;;;;;9.47;6.10;;;;;;;-141.97;100.00;47607.50;4919779;29;20170;-88
2022/10/02 03:43:03;;;;;;;7.63;4.93;;;;;;;-141.97;99.47;47642.09;4920431;29;20583;-88
2022/10/02 03:45:29;;;;;;;12.47;5.60;;;;;;;-141.97;98.19;47622.88;4921884;29;20158;-87
2022/10/02 03:47:54;;;;;;;8.03;5.77;;;;;;;-141.97;97.40;47580.59;4920147;29;20172;-88
2022/10/02 03:50:20;;;;;;;7.30;4.93;;;;;;;-141.97;95.83;47555.59;4903700;29;20250;-89
2022/10/02 03:52:50;;;;;;;7.03;4.43;;;;;;;-141.97;92.81;47538.28;4923515;29;20192;-88
2022/10/02 03:55:31;;;;;;;6.07;3.53;;;;;;;-141.97;89.46;47592.13;4926140;29;20208;-87
2022/10/02 03:57:57;;;;;;;5.33;3.20;;;;;;;-141.97;85.60;47509.47;4922235;29;20631;-89
2022/10/02 04:00:31;;;;;;;4.13;2.73;;;;;;;-141.97;83.07;47715.13;4904321;29;20174;-88
2022/10/02 04:03:06;;;;;;;4.30;2.37;;;;;;;-141.97;81.20;47626.72;4905738;29;20181;-90
2022/10/02 04:05:46;;;;;;;3.97;2.23;;;;;;;-141.97;80.50;47534.44;4903588;29;20182;-90
2022/10/02 04:08:35;;;;;;;3.57;2.60;;;;;;;-141.97;81.19;47574.81;4919919;29;20261;-90
2022/10/02 04:11:32;;;;;;;3.00;2.30;;;;;;;-141.97;81.85;47642.09;4919902;29;20706;-87
2022/10/02 04:14:08;;;;;;;5.90;2.90;;;;;;;-141.97;81.86;47613.25;4919703;29;20174;-89
2022/10/02 04:16:51;;;;;;;3.77;2.40;;;;;;;-141.97;81.52;47749.72;4902578;29;20185;-89
2022/10/02 04:19:28;;;;;;;2.60;2.23;;;;;;;-141.97;80.33;47546.00;4903953;29;20229;-90
2022/10/02 04:22:06;;;;;;;3.77;2.23;;;;;;;-141.97;79.51;47599.81;4905971;29;20243;-90
2022/10/02 04:24:53;;;;;;;3.20;2.27;;;;;;;-141.97;80.48;47590.19;4904630;29;20184;-89
2022/10/02 04:27:48;;;;;;;3.07;2.27;;;;;;;-141.97;80.71;47615.19;4902986;29;20256;-88
2022/10/02 04:30:15;;;;;;;4.63;2.50;;;;;;;-141.97;80.59;47511.38;4845903;29;20230;-88
2022/10/02 04:32:41;;;;;;;3.17;2.00;;;;;;;-141.97;77.99;47540.22;4861282;29;20192;-89
2022/10/02 04:35:29;;;;;;;2.17;1.80;;;;;;;-141.97;77.05;47509.47;4862135;29;20304;-88
2022/10/02 04:38:19;;;;;;;1.77;1.50;;;;;;;-141.97;75.50;47622.88;4845539;29;20267;-89
2022/10/02 04:41:00;;;;;;;2.10;1.60;;;;;;;-141.97;75.33;47603.66;4844649;29;20196;-88
2022/10/02 04:43:44;;;;;;;3.00;1.80;;;;;;;-141.97;74.75;47615.19;4844776;29;20187;-88
2022/10/02 04:46:56;;;;;;;3.20;2.20;;;;;;;-141.97;74.13;47592.13;4860602;29;20184;-90
2022/10/02 04:49:39;;;;;;;3.80;2.80;;;;;;;-141.97;74.08;47603.66;4805312;29;20324;-89
2022/10/02 04:52:05;;;;;;;3.00;2.00;;;;;;;-141.97;73.83;47592.13;4805897;29;20174;-90
2022/10/02 04:54:46;;;;;;;3.27;2.97;;;;;;;-141.97;74.05;47601.72;4805827;29;20259;-89
2022/10/02 04:57:26;;;;;;;5.20;2.90;;;;;;;-141.97;73.71;47626.72;4805874;29;20186;-88
2022/10/02 05:00:11;;;;;;;4.23;3.13;;;;;;;-141.97;73.45;47632.47;4805172;29;20735;-88
2022/10/02 05:03:04;;;;;;;7.30;3.73;;;;;;;-141.97;73.69;47597.88;4805277;29;20217;-89
2022/10/02 05:05:38;;;;;;;6.13;3.60;;;;;;;-141.97;73.95;47590.19;4790385;29;20186;-89
2022/10/02 05:08:17;;;;;;;5.20;3.77;;;;;;;-141.97;73.45;47607.50;4808167;29;20195;-90
2022/10/02 05:11:09;;;;;;;5.70;4.00;;;;;;;-141.97;73.34;47594.03;4823764;29;20184;-89
2022/10/02 05:13:53;;;;;;;5.43;3.83;;;;;;;-141.97;73.42;47597.88;4808802;29;20193;-89
2022/10/02 05:16:27;;;;;;;6.03;4.47;;;;;;;-141.97;73.42;47642.09;4812987;29;20197;-88
2022/10/02 05:19:29;;;;;;;7.90;4.37;;;;;;;-141.97;73.72;47605.56;4814936;29;20675;-88
2022/10/02 05:22:15;;;;;;;5.97;4.17;;;;;;;-141.97;74.18;47586.34;4834893;29;20181;-89
2022/10/02 05:25:09;;;;;;;5.33;4.30;;;;;;;-141.97;74.36;47576.75;4828449;29;20282;-90
2022/10/02 05:27:40;;;;;;;6.10;4.07;;;;;;;-141.97;74.67;47588.28;4918078;29;20248;-89
2022/10/02 05:30:15;;;;;;;7.90;4.80;;;;;;;-141.97;73.90;47582.50;4901386;29;20206;-88
2022/10/02 05:32:49;;;;;;;6.27;4.67;;;;;;;-141.97;73.71;47592.13;4902563;29;20200;-89
2022/10/02 05:35:30;;;;;;;5.87;4.67;;;;;;;-141.97;73.39;47626.72;4902791;29;20173;-90
2022/10/02 05:38:02;;;;;;;5.77;4.33;;;;;;;-141.97;72.63;47619.03;4902071;29;20200;-89
2022/10/02 05:40:32;;;;;;;6.00;4.87;;;;;;;-141.97;72.23;47499.84;4901029;29;20554;-89
2022/10/02 05:43:07;;;;;;;6.33;4.13;;;;;;;-141.97;71.50;47615.19;4903810;29;20181;-88
2022/10/02 05:45:39;;;;;;;6.63;4.53;;;;;;;-141.97;71.68;47638.25;4906138;29;20526;-90
2022/10/02 05:48:17;;;;;;;7.97;5.70;;;;;;;-141.97;71.73;47496.00;4918272;29;20189;-89
2022/10/02 05:50:48;;;;;;;6.20;4.37;;;;;;;-141.97;71.54;47644.00;4903699;29;20194;-90
2022/10/02 05:53:29;;;;;;;7.10;4.90;;;;;;;-141.97;71.76;47599.81;4906370;29;20170;-90
2022/10/02 05:56:03;;;;;;;6.77;5.00;;;;;;;-141.97;71.37;47574.81;4904817;29;20647;-90
2022/10/02 05:58:46;;;;;;;5.90;5.10;;;;;;;-141.97;70.18;47680.53;4909296;29;20185;-90
2022/10/02 06:01:17;;;;;;;8.23;5.53;;;;;;;-141.97;70.64;47584.44;4903265;29;20170;-89
2022/10/02 06:04:04;;;;;;;5.50;4.70;;;;;;;-141.97;69.52;47590.19;4919415;29;20198;-90
2022/10/02 06:06:32;;;;;;;7.40;4.40;;;;;;;-141.97;68.59;47592.13;4901999;29;20173;-88
2022/10/02 06:09:04;;;;;;;7.50;5.27;;;;;;;-141.97;68.63;47565.22;4923347;29;20252;-89
2022/10/02 06:11:34;;;;;;;7.33;5.00;;;;;;;-141.97;67.97;47786.25;4938164;29;20169;-88
2022/10/02 06:14:09;;;;;;;6.33;5.17;;;;;;;-141.97;67.25;47620.94;4938591;29;20166;-88
2022/10/02 06:16:43;;;;;;;8.00;5.03;;;;;;;-141.97;66.97;47565.22;4938345;29;20241;-88
2022/10/02 06:19:23;;;;;;;6.80;4.93;;;;;;;-141.97;66.34;47584.44;4923881;29;20193;-87
2022/10/02 06:21:55;;;;;;;6.83;5.63;;;;;;;-141.97;65.37;47409.53;4924702;29;20161;-88
2022/10/02 06:24:27;;;;;;;5.10;4.60;;;;;;;-141.97;64.86;47519.06;4939289;29;20233;-87
2022/10/02 06:27:07;;;;;;;8.40;4.37;;;;;;;-141.97;64.79;47632.47;4922128;29;20221;-87
2022/10/02 06:29:48;;;;;;;6.07;4.20;;;;;;;-141.97;64.88;47588.28;4921522;29;20197;-88
2022/10/02 06:32:18;;;;;;;5.93;4.67;;;;;;;-141.97;65.03;47561.38;4941617;29;20173;-87
2022/10/02 06:34:44;;;;;;;8.13;4.67;;;;;;;-141.97;64.38;47542.16;4939788;29;20173;-87
2022/10/02 06:37:28;;;;;;;5.37;4.07;;;;;;;-141.97;64.52;47538.28;4920405;29;20201;-87
2022/10/02 06:40:21;;;;;;;6.43;4.50;;;;;;;-141.97;63.72;47576.75;4937617;29;20596;-86
2022/10/02 06:43:18;;;;;;;4.93;4.10;;;;;;;-141.97;62.97;47580.59;4919969;29;20555;-87
2022/10/02 06:45:57;;;;;;;5.83;3.47;;;;;;;-141.97;62.47;47663.22;4919496;29;20166;-87
2022/10/02 06:48:37;;;;;;;4.73;3.60;;;;;;;-141.97;61.94;47615.19;4936419;29;20158;-87
2022/10/02 06:51:21;;;;;;;7.20;4.93;;;;;;;-141.97;62.31;47570.97;4919688;29;20173;-87
2022/10/02 06:54:18;;;;;;;4.87;3.67;;;;;;;-141.97;61.50;47569.06;4936437;29;20167;-88
2022/10/02 06:57:04;;;;;;;5.73;4.50;;;;;;;-141.97;61.94;47592.13;4915978;29;20193;-87
2022/10/02 07:00:14;;;;;;;6.10;4.13;;;;;;;-141.97;61.38;47534.44;4915018;29;20770;-87
2022/10/02 07:03:08;;;;;;;7.50;3.90;;;;;;;-141.97;60.95;47567.13;4914670;29;20303;-87
2022/10/02 07:06:04;;;;;;;4.60;3.53;;;;;;;-141.97;59.82;47570.97;4898182;29;20387;-88
2022/10/02 07:08:36;;;;;;;6.80;4.10;;;;;;;-141.97;59.06;47607.50;4915791;29;20190;-87
2022/10/02 07:11:20;;;;;;;5.07;3.90;;;;;;;-141.97;58.76;47563.28;4920339;29;20232;-88
2022/10/02 07:14:13;;;;;;;5.67;3.60;;;;;;;-141.97;58.04;47565.22;4923133;29;20210;-88
2022/10/02 07:17:04;;;;;;;4.17;3.57;;;;;;;-141.97;57.89;47388.38;4906452;29;20174;-87
2022/10/02 07:19:50;;;;;;;4.03;3.37;;;;;;;-141.97;56.94;47553.69;4920589;29;20249;-88
2022/10/02 07:22:44;;;;;;;3.63;3.07;;;;;;;-141.97;56.83;47565.22;4944410;29;20670;-88
2022/10/02 07:25:23;;;;;;;3.80;3.40;;;;;;;-141.97;56.54;47561.38;4907603;29;20218;-89
2022/10/02 07:28:12;;;;;;;3.90;3.37;;;;;;;-141.97;56.26;47540.22;4937866;29;20224;-88
2022/10/02 07:30:58;;;;;;;3.80;2.90;;;;;;;-141.97;55.60;47496.00;4920951;29;20245;-88
2022/10/02 07:33:53;;;;;;;5.60;3.83;;;;;;;-141.97;54.92;47586.34;4943134;29;20228;-88
2022/10/02 07:36:32;;;;;;;6.60;3.30;;;;;;;-141.97;54.66;47494.09;4919846;29;20252;-89
2022/10/02 07:39:01;;;;;;;5.23;3.20;;;;;;;-141.97;54.04;47576.75;4902896;29;20200;-89
2022/10/02 07:41:52;;;;;;;5.40;4.20;;;;;;;-141.97;54.61;47542.16;4921056;29;20253;-90
2022/10/02 07:44:17;;;;;;;5.97;3.23;;;;;;;-141.97;54.11;47565.22;4905712;29;20852;-90
2022/10/02 07:47:10;;;;;;;4.10;3.20;;;;;;;-141.97;54.60;47499.84;4917114;29;20186;-89
2022/10/02 07:49:58;;;;;;;6.43;4.30;;;;;;;-141.97;53.76;47557.53;4904686;29;20203;-89
2022/10/02 07:52:54;;;;;;;8.77;4.57;;;;;;;-141.97;53.70;47553.69;4918011;29;20202;-89
2022/10/02 07:55:21;;;;;;;6.17;4.17;;;;;;;-141.97;53.34;47555.59;4918368;29;20179;-88
2022/10/02 07:57:58;;;;;;;7.13;4.30;;;;;;;-141.97;52.45;47503.69;4901962;29;20174;-89
2022/10/02 08:00:28;;;;;;;4.70;4.00;;;;;;;-141.97;52.11;47515.22;4917203;29;20190;-90
2022/10/02 08:03:05;;;;;;;7.20;3.80;;;;;;;-141.97;52.19;47717.06;4886786;29;20194;-90
2022/10/02 08:05:48;;;;;;;3.87;3.50;;;;;;;-141.97;51.91;47496.00;4918634;29;20178;-88
2022/10/02 08:08:37;;;;;;;8.00;4.10;;;;;;;-141.97;51.27;47603.66;4915155;29;20767;-89
2022/10/02 08:11:13;;;;;;;4.60;4.20;;;;;;;-141.97;51.01;47411.44;4903899;29;20277;-88
2022/10/02 08:13:42;;;;;;;4.17;3.60;;;;;;;-141.97;50.63;47597.88;4898594;29;20726;-89
2022/10/02 08:16:12;;;;;;;4.07;3.63;;;;;;;-141.97;50.76;47505.63;4926819;29;20574;-90
2022/10/02 08:18:42;;;;;;;4.27;3.30;;;;;;;-141.97;50.49;47369.16;4942824;29;20609;-90
2022/10/02 08:21:13;;;;;;;7.30;3.37;;;;;;;-141.97;50.37;47469.09;4940435;29;20395;-89
2022/10/02 08:24:06;;;;;;;4.30;3.43;;;;;;;-141.97;48.93;47542.16;4941572;29;20161;-89
2022/10/02 08:26:56;;;;;;;5.23;3.33;;;;;;;-141.97;48.97;47542.16;4931811;29;20192;-90
2022/10/02 08:29:33;;;;;;;6.10;4.40;;;;;;;-141.97;49.39;47519.06;4910808;29;20230;-89
2022/10/02 08:31:59;;;;;;;5.77;4.10;;;;;;;-141.97;48.27;47567.13;4910279;29;20197;-87
2022/10/02 08:34:25;;;;;;;6.47;4.50;;;;;;;-141.97;48.53;47555.59;4912700;29;20642;-87
2022/10/02 08:37:02;;;;;;;4.53;3.17;;;;;;;-141.97;48.52;47555.59;4912898;29;20229;-88
2022/10/02 08:39:38;;;;;;;4.13;3.37;;;;;;;-141.97;49.00;47540.22;4903168;29;20166;-88
2022/10/02 08:42:25;;;;;;;6.43;3.83;;;;;;;-141.97;49.05;47526.75;4922382;29;20265;-88
2022/10/02 08:45:28;;;;;;;8.63;3.73;;;;;;;-141.97;47.95;47546.00;4929349;29;20181;-87
2022/10/02 08:48:11;;;;;;;6.67;4.13;;;;;;;-141.97;48.33;47524.84;4928694;29;20248;-87
2022/10/02 08:51:09;;;;;;;4.27;3.07;;;;;;;-141.97;47.49;47513.31;4926960;29;20181;-88
2022/10/02 08:53:53;;;;;;;6.93;4.20;;;;;;;-141.97;46.50;47551.75;4928213;29;20205;-87
2022/10/02 08:57:01;;;;;;;4.63;3.43;;;;;;;-141.97;45.50;47574.81;4928949;29;20185;-88
2022/10/02 08:59:55;;;;;;;5.23;3.73;;;;;;;-141.97;45.86;47519.06;4860896;29;20222;-88
2022/10/02 09:02:29;;;;;;;5.20;3.70;;;;;;;-141.97;45.30;47578.66;4869407;29;20180;-87
2022/10/02 09:05:20;;;;;;;4.80;2.97;;;;;;;-141.97;45.17;47563.28;4870117;29;20768;-87
2022/10/02 09:08:02;;;;;;;5.47;2.87;;;;;;;-141.97;43.84;47530.59;4887288;29;20180;-87
2022/10/02 09:10:58;;;;;;;6.47;2.90;;;;;;;-141.97;43.08;47530.59;4869112;29;20215;-88
2022/10/02 09:13:37;;;;;;;6.17;2.97;;;;;;;-141.97;42.48;47524.84;4862177;29;20661;-88
2022/10/02 09:16:14;;;;;;;5.53;2.83;;;;;;;-141.97;42.53;47472.94;4862770;29;20168;-88
2022/10/02 09:18:55;;;;;;;5.00;3.13;;;;;;;-141.97;43.32;47565.22;4862163;29;20183;-87
2022/10/02 09:21:49;;;;;;;3.90;2.33;;;;;;;-141.97;40.96;47513.31;4862342;29;20164;-89
2022/10/02 09:24:42;;;;;;;5.03;3.10;;;;;;;-141.97;41.96;47532.53;4867701;29;20183;-87
2022/10/02 09:27:42;;;;;;;4.60;3.03;;;;;;;-141.97;41.74;47526.75;4862653;29;20231;-89
2022/10/02 09:30:07;;;;;;;3.40;2.93;;;;;;;-141.97;42.26;47505.63;4859280;29;20223;-88
2022/10/02 09:33:14;;;;;;;3.13;2.83;;;;;;;-141.97;42.69;47519.06;4859514;29;20192;-89
2022/10/02 09:36:07;;;;;;;4.10;3.30;;;;;;;-141.97;42.82;47519.06;4860426;29;20249;-90
2022/10/02 09:39:08;;;;;;;5.50;3.30;;;;;;;-141.97;40.89;47526.75;4859091;29;20181;-89
2022/10/02 09:41:58;;;;;;;3.03;2.43;;;;;;;-141.97;40.29;47517.16;4859929;29;20196;-87
2022/10/02 09:44:43;;;;;;;6.10;2.77;;;;;;;-141.97;39.44;47519.06;4859521;29;20321;-88
2022/10/02 09:47:15;;;;;;;5.27;3.90;;;;;;;-141.97;40.79;47515.22;4858497;29;20197;-88
2022/10/02 09:50:05;;;;;;;5.93;3.20;;;;;;;-141.97;40.21;47488.31;4858534;29;20216;-87
2022/10/02 09:53:08;;;;;;;4.67;1.90;;;;;;;-141.97;37.08;47567.13;4861154;29;20256;-87
2022/10/02 09:55:52;;;;;;;3.43;2.23;;;;;;;-141.97;36.21;47711.28;4843635;29;20729;-88
2022/10/02 09:58:42;;;;;;;3.47;2.40;;;;;;;-141.97;38.57;47494.09;4862133;29;20209;-89
2022/10/02 10:01:35;;;;;;;5.33;2.80;;;;;;;-141.97;37.89;47486.41;4847003;29;20213;-89
2022/10/02 10:04:18;;;;;;;2.77;2.00;;;;;;;-141.97;36.58;47561.38;4846079;29;20188;-88
2022/10/02 10:07:07;;;;;;;4.27;2.50;;;;;;;-141.97;37.31;47515.22;4846695;29;20199;-89
2022/10/02 10:10:18;;;;;;;4.23;2.90;;;;;;;-141.97;39.27;47503.69;4863843;29;20347;-88
2022/10/02 10:12:52;;;;;;;8.03;3.17;;;;;;;-141.97;38.57;47497.94;4899121;29;20206;-87
2022/10/02 10:15:24;;;;;;;3.83;2.97;;;;;;;-141.97;38.67;47499.84;4899268;29;20272;-88
2022/10/02 10:18:16;;;;;;;8.23;3.00;;;;;;;-141.97;38.44;47707.44;4898677;29;20190;-89
2022/10/02 10:21:02;;;;;;;4.17;3.30;;;;;;;-141.97;38.49;47524.84;4898819;29;20171;-89
2022/10/02 10:23:44;;;;;;;4.30;3.60;;;;;;;-141.97;38.70;47532.53;4896838;29;20186;-89
2022/10/02 10:26:59;;;;;;;8.03;4.83;;;;;;;-141.97;37.60;47486.41;4892159;29;20182;-89
2022/10/02 10:29:44;;;;;;;3.87;2.77;;;;;;;-141.97;38.40;47538.28;4899460;29;20264;-87
2022/10/02 10:32:33;;;;;;;2.70;2.50;;;;;;;-141.97;38.83;47480.63;4905876;29;20201;-87
2022/10/02 10:35:22;;;;;;;3.60;2.60;;;;;;;-141.97;39.05;47426.81;4917978;29;20693;-88
2022/10/02 10:41:18;;;;;;;6.63;2.97;;;;;;;-141.97;38.19;47515.22;4918604;29;20601;-88
2022/10/02 10:44:22;;;;;;;4.43;2.23;;;;;;;-141.97;36.40;47542.16;4899172;29;20199;-88
2022/10/02 10:46:53;;;;;;;2.47;1.90;;;;;;;-141.97;37.34;47511.38;4849714;29;20261;-88
2022/10/02 10:50:01;;;;;;;3.50;2.50;;;;;;;-141.97;37.19;47507.53;4845317;29;20257;-88
2022/10/02 10:52:43;;;;;;;3.27;2.30;;;;;;;-141.97;37.36;47484.47;4846493;29;20176;-87
2022/10/02 10:55:28;;;;;;;3.00;1.67;;;;;;;-141.97;36.04;47484.47;4845399;29;20638;-88
2022/10/02 10:58:15;;;;;;;2.37;1.50;;;;;;;-141.97;36.19;47513.31;4846082;29;20289;-88
2022/10/02 11:01:17;;;;;;;2.80;1.43;;;;;;;-141.97;35.48;47530.59;4844236;29;20193;-89
2022/10/02 11:04:12;;;;;;;2.20;1.70;;;;;;;-141.97;35.68;47488.31;4792951;29;20213;-87
2022/10/02 11:06:44;;;;;;;2.27;1.60;;;;;;;-141.97;35.54;47534.44;4807933;29;20194;-88
2022/10/02 11:10:07;;;;;;;4.07;1.70;;;;;;;-141.97;35.83;47522.91;4800358;29;20217;-88
2022/10/02 11:13:00;;;;;;;3.77;1.80;;;;;;;-141.97;36.18;47501.78;4755910;30;20212;-88
2022/10/02 11:15:47;;;;;;;5.00;1.70;;;;;;;-141.97;35.14;47496.00;4756340;30;20207;-87
2022/10/02 11:18:37;;;;;;;5.40;1.90;;;;;;;-141.97;35.78;47511.38;4771069;30;20168;-88
2022/10/02 11:21:27;;;;;;;4.17;1.70;;;;;;;-141.97;36.10;47530.59;4797590;29;20194;-88
2022/10/02 11:24:19;;;;;;;5.07;1.90;;;;;;;-141.97;35.58;47499.84;4805708;29;20230;-87
2022/10/02 11:27:10;;;;;;;4.27;1.90;;;;;;;-141.97;35.46;47507.53;4791464;29;20193;-88
2022/10/02 11:30:03;;;;;;;3.63;1.70;;;;;;;-141.97;35.33;47451.81;4792520;29;20230;-87
2022/10/02 11:32:44;;;;;;;3.10;1.60;;;;;;;-141.97;35.69;47507.53;4807181;29;20239;-87
2022/10/02 11:35:29;;;;;;;1.40;1.30;;;;;;;-141.97;35.86;47409.53;4821746;29;20197;-88
2022/10/02 11:38:13;;;;;;;2.87;1.57;;;;;;;-141.97;35.87;47480.63;4806593;29;20178;-88
2022/10/02 11:41:21;;;;;;;1.70;1.60;;;;;;;-141.97;35.78;47517.16;4859361;29;20591;-89
2022/10/02 11:44:11;;;;;;;1.60;1.30;;;;;;;-141.97;34.83;47542.16;4843128;29;20180;-88
2022/10/02 11:46:52;;;;;;;2.40;1.47;;;;;;;-141.97;35.00;47415.28;4843034;29;20617;-88
2022/10/02 11:49:57;;;;;;;2.80;1.90;;;;;;;-141.97;35.14;47476.78;4905811;29;20691;-87
2022/10/02 11:52:41;;;;;;;3.07;1.67;;;;;;;-141.97;35.00;47484.47;4921334;29;20658;-87
2022/10/02 11:55:24;;;;;;;2.67;1.73;;;;;;;-141.97;34.26;47595.97;4938382;29;20601;-87
2022/10/02 11:57:56;;;;;;;2.40;1.48;;;;;;;-141.97;34.08;47488.31;4922725;29;20185;-88
2022/10/02 12:00:44;;;;;;;2.63;1.60;;;;;;;-141.97;33.78;47599.81;4942899;29;20655;-87
2022/10/02 12:03:30;;;;;;;2.17;1.40;;;;;;;-141.97;34.24;47488.31;4928477;29;20202;-88
2022/10/02 12:06:27;;;;;;;1.88;1.60;;;;;;;-141.97;33.95;47669.00;4925442;29;20265;-88
2022/10/02 12:09:01;;;;;;;3.65;1.50;;;;;;;-141.97;33.71;47457.56;4942000;29;20195;-88
2022/10/02 12:11:50;;;;;;;2.40;1.85;;;;;;;-141.97;33.79;47494.09;4941754;29;20175;-88
2022/10/02 12:14:35;;;;;;;1.60;1.50;;;;;;;-141.97;34.03;47515.22;4926757;29;20174;-88
2022/10/02 12:17:07;;;;;;;2.28;1.38;;;;;;;-141.97;33.65;47524.84;4926068;29;20175;-89
2022/10/02 12:29:25;;;;;;;1.92;1.50;;;;;;;-141.97;32.72;47472.94;4940949;29;20579;-89
2022/10/02 12:32:00;;;;;;;2.20;1.70;;;;;;;-141.97;33.04;47496.00;4923891;29;20175;-89